sensor_id;sensor_type;location;lat;lon;timestamp;P1;durP1;ratioP1;P2;durP2;ratioP2
16246;SDS011;8231;50.866;7.944;2023-08-30T00:01:02;5.75;;;4.80;;
16246;SDS011;8231;50.866;7.944;2023-08-30T00:03:31;5.88;;;5.38;;
16246;SDS011;8231;50.866;7.944;2023-08-30T00:06:02;10.52;;;5.22;;
16246;SDS011;8231;50.866;7.944;2023-08-30T00:08:30;5.30;;;4.90;;
16246;SDS011;8231;50.866;7.944;2023-08-30T00:10:59;5.10;;;4.70;;
16246;SDS011;8231;50.866;7.944;2023-08-30T00:13:29;5.20;;;4.80;;
16246;SDS011;8231;50.866;7.944;2023-08-30T00:15:58;5.97;;;5.45;;
16246;SDS011;8231;50.866;7.944;2023-08-30T00:18:28;5.30;;;4.82;;
16246;SDS011;8231;50.866;7.944;2023-08-30T00:20:58;5.18;;;4.78;;
16246;SDS011;8231;50.866;7.944;2023-08-30T00:23:26;10.23;;;6.13;;
16246;SDS011;8231;50.866;7.944;2023-08-30T00:25:54;7.70;;;5.45;;
16246;SDS011;8231;50.866;7.944;2023-08-30T00:28:23;9.00;;;5.50;;
16246;SDS011;8231;50.866;7.944;2023-08-30T00:30:53;5.80;;;5.30;;
16246;SDS011;8231;50.866;7.944;2023-08-30T00:33:22;6.25;;;5.40;;
16246;SDS011;8231;50.866;7.944;2023-08-30T00:35:55;5.32;;;4.93;;
16246;SDS011;8231;50.866;7.944;2023-08-30T00:38:25;6.25;;;4.75;;
16246;SDS011;8231;50.866;7.944;2023-08-30T00:40:54;6.38;;;5.57;;
16246;SDS011;8231;50.866;7.944;2023-08-30T00:43:22;6.85;;;5.28;;
16246;SDS011;8231;50.866;7.944;2023-08-30T00:45:50;4.90;;;4.50;;
16246;SDS011;8231;50.866;7.944;2023-08-30T00:48:19;6.03;;;5.50;;
16246;SDS011;8231;50.866;7.944;2023-08-30T00:50:49;5.22;;;4.82;;
16246;SDS011;8231;50.866;7.944;2023-08-30T00:53:18;5.82;;;5.32;;
16246;SDS011;8231;50.866;7.944;2023-08-30T00:55:47;5.20;;;4.82;;
16246;SDS011;8231;50.866;7.944;2023-08-30T00:58:15;10.70;;;5.57;;
16246;SDS011;8231;50.866;7.944;2023-08-30T01:00:44;8.45;;;5.78;;
16246;SDS011;8231;50.866;7.944;2023-08-30T01:03:13;5.07;;;4.75;;
16246;SDS011;8231;50.866;7.944;2023-08-30T01:05:41;5.72;;;5.07;;
16246;SDS011;8231;50.866;7.944;2023-08-30T01:08:10;5.47;;;4.97;;
16246;SDS011;8231;50.866;7.944;2023-08-30T01:10:41;8.68;;;5.43;;
16246;SDS011;8231;50.866;7.944;2023-08-30T01:13:19;10.27;;;5.10;;
16246;SDS011;8231;50.866;7.944;2023-08-30T01:15:48;6.18;;;5.68;;
16246;SDS011;8231;50.866;7.944;2023-08-30T01:18:21;6.63;;;6.00;;
16246;SDS011;8231;50.866;7.944;2023-08-30T01:20:52;6.38;;;5.88;;
16246;SDS011;8231;50.866;7.944;2023-08-30T01:23:24;5.80;;;5.30;;
16246;SDS011;8231;50.866;7.944;2023-08-30T01:26:03;6.32;;;5.20;;
16246;SDS011;8231;50.866;7.944;2023-08-30T01:28:38;7.93;;;6.05;;
16246;SDS011;8231;50.866;7.944;2023-08-30T01:31:07;5.43;;;5.03;;
16246;SDS011;8231;50.866;7.944;2023-08-30T01:33:36;5.10;;;4.70;;
16246;SDS011;8231;50.866;7.944;2023-08-30T01:36:05;6.13;;;5.70;;
16246;SDS011;8231;50.866;7.944;2023-08-30T01:38:34;6.07;;;5.38;;
16246;SDS011;8231;50.866;7.944;2023-08-30T01:41:04;7.30;;;6.75;;
16246;SDS011;8231;50.866;7.944;2023-08-30T01:43:32;8.40;;;6.10;;
16246;SDS011;8231;50.866;7.944;2023-08-30T01:46:04;7.25;;;6.47;;
16246;SDS011;8231;50.866;7.944;2023-08-30T01:48:34;6.85;;;6.25;;
16246;SDS011;8231;50.866;7.944;2023-08-30T01:51:03;6.70;;;6.10;;
16246;SDS011;8231;50.866;7.944;2023-08-30T01:53:32;6.25;;;5.65;;
16246;SDS011;8231;50.866;7.944;2023-08-30T01:56:00;6.68;;;5.97;;
16246;SDS011;8231;50.866;7.944;2023-08-30T01:58:29;6.40;;;5.88;;
16246;SDS011;8231;50.866;7.944;2023-08-30T02:00:57;7.10;;;5.88;;
16246;SDS011;8231;50.866;7.944;2023-08-30T02:03:28;6.72;;;6.10;;
16246;SDS011;8231;50.866;7.944;2023-08-30T02:05:58;7.18;;;6.47;;
16246;SDS011;8231;50.866;7.944;2023-08-30T02:08:36;5.88;;;5.28;;
16246;SDS011;8231;50.866;7.944;2023-08-30T02:11:07;5.78;;;5.38;;
16246;SDS011;8231;50.866;7.944;2023-08-30T02:13:42;5.75;;;5.25;;
16246;SDS011;8231;50.866;7.944;2023-08-30T02:16:12;6.25;;;5.75;;
16246;SDS011;8231;50.866;7.944;2023-08-30T02:18:43;7.03;;;6.32;;
16246;SDS011;8231;50.866;7.944;2023-08-30T02:21:12;6.07;;;5.57;;
16246;SDS011;8231;50.866;7.944;2023-08-30T02:23:40;6.22;;;5.82;;
16246;SDS011;8231;50.866;7.944;2023-08-30T02:26:09;8.70;;;6.75;;
16246;SDS011;8231;50.866;7.944;2023-08-30T02:28:37;7.15;;;6.55;;
16246;SDS011;8231;50.866;7.944;2023-08-30T02:31:05;6.68;;;5.93;;
16246;SDS011;8231;50.866;7.944;2023-08-30T02:33:34;7.05;;;6.47;;
16246;SDS011;8231;50.866;7.944;2023-08-30T02:36:05;12.07;;;6.45;;
16246;SDS011;8231;50.866;7.944;2023-08-30T02:38:34;6.95;;;6.45;;
16246;SDS011;8231;50.866;7.944;2023-08-30T02:41:02;12.43;;;7.03;;
16246;SDS011;8231;50.866;7.944;2023-08-30T02:43:31;7.68;;;6.97;;
16246;SDS011;8231;50.866;7.944;2023-08-30T02:45:59;8.32;;;6.80;;
16246;SDS011;8231;50.866;7.944;2023-08-30T02:48:30;22.58;;;7.07;;
16246;SDS011;8231;50.866;7.944;2023-08-30T02:50:58;18.50;;;8.68;;
16246;SDS011;8231;50.866;7.944;2023-08-30T02:53:28;12.65;;;7.35;;
16246;SDS011;8231;50.866;7.944;2023-08-30T02:55:56;8.57;;;7.88;;
16246;SDS011;8231;50.866;7.944;2023-08-30T02:58:24;8.35;;;7.55;;
16246;SDS011;8231;50.866;7.944;2023-08-30T03:00:57;7.88;;;7.18;;
16246;SDS011;8231;50.866;7.944;2023-08-30T03:03:25;7.95;;;7.35;;
16246;SDS011;8231;50.866;7.944;2023-08-30T03:05:54;18.27;;;7.00;;
16246;SDS011;8231;50.866;7.944;2023-08-30T03:08:23;8.50;;;5.05;;
16246;SDS011;8231;50.866;7.944;2023-08-30T03:10:53;54.40;;;8.32;;
16246;SDS011;8231;50.866;7.944;2023-08-30T03:13:21;6.43;;;5.93;;
16246;SDS011;8231;50.866;7.944;2023-08-30T03:15:49;7.68;;;6.32;;
16246;SDS011;8231;50.866;7.944;2023-08-30T03:18:19;131.00;;;14.20;;
16246;SDS011;8231;50.866;7.944;2023-08-30T03:20:47;13.40;;;7.55;;
16246;SDS011;8231;50.866;7.944;2023-08-30T03:23:17;7.72;;;5.47;;
16246;SDS011;8231;50.866;7.944;2023-08-30T03:25:46;19.85;;;6.38;;
16246;SDS011;8231;50.866;7.944;2023-08-30T03:28:16;6.25;;;5.55;;
16246;SDS011;8231;50.866;7.944;2023-08-30T03:30:44;16.17;;;6.07;;
16246;SDS011;8231;50.866;7.944;2023-08-30T03:33:12;38.00;;;7.00;;
16246;SDS011;8231;50.866;7.944;2023-08-30T03:35:40;31.45;;;7.65;;
16246;SDS011;8231;50.866;7.944;2023-08-30T03:38:08;8.15;;;6.00;;
16246;SDS011;8231;50.866;7.944;2023-08-30T03:40:37;12.10;;;5.75;;
16246;SDS011;8231;50.866;7.944;2023-08-30T03:43:06;10.25;;;6.00;;
16246;SDS011;8231;50.866;7.944;2023-08-30T03:45:36;6.07;;;5.57;;
16246;SDS011;8231;50.866;7.944;2023-08-30T03:48:05;5.50;;;5.00;;
16246;SDS011;8231;50.866;7.944;2023-08-30T03:50:34;15.75;;;5.80;;
16246;SDS011;8231;50.866;7.944;2023-08-30T03:53:02;12.23;;;5.85;;
16246;SDS011;8231;50.866;7.944;2023-08-30T03:55:30;7.07;;;6.00;;
16246;SDS011;8231;50.866;7.944;2023-08-30T03:57:59;8.10;;;6.32;;
16246;SDS011;8231;50.866;7.944;2023-08-30T04:00:28;6.80;;;6.30;;
16246;SDS011;8231;50.866;7.944;2023-08-30T04:02:57;23.02;;;7.07;;
16246;SDS011;8231;50.866;7.944;2023-08-30T04:05:26;6.90;;;5.60;;
16246;SDS011;8231;50.866;7.944;2023-08-30T04:07:55;8.20;;;5.93;;
16246;SDS011;8231;50.866;7.944;2023-08-30T04:10:23;7.80;;;7.05;;
16246;SDS011;8231;50.866;7.944;2023-08-30T04:12:51;17.25;;;6.95;;
16246;SDS011;8231;50.866;7.944;2023-08-30T04:15:19;18.77;;;7.00;;
16246;SDS011;8231;50.866;7.944;2023-08-30T04:17:48;7.47;;;6.88;;
16246;SDS011;8231;50.866;7.944;2023-08-30T04:20:17;8.23;;;7.40;;
16246;SDS011;8231;50.866;7.944;2023-08-30T04:22:47;6.65;;;6.05;;
16246;SDS011;8231;50.866;7.944;2023-08-30T04:25:15;6.65;;;6.05;;
16246;SDS011;8231;50.866;7.944;2023-08-30T04:27:43;6.93;;;6.32;;
16246;SDS011;8231;50.866;7.944;2023-08-30T04:30:11;6.55;;;5.95;;
16246;SDS011;8231;50.866;7.944;2023-08-30T04:32:40;7.60;;;6.75;;
16246;SDS011;8231;50.866;7.944;2023-08-30T04:35:09;6.22;;;5.63;;
16246;SDS011;8231;50.866;7.944;2023-08-30T04:37:39;6.43;;;5.80;;
16246;SDS011;8231;50.866;7.944;2023-08-30T04:40:09;6.70;;;6.13;;
16246;SDS011;8231;50.866;7.944;2023-08-30T04:42:38;7.05;;;6.45;;
16246;SDS011;8231;50.866;7.944;2023-08-30T04:45:07;6.93;;;6.32;;
16246;SDS011;8231;50.866;7.944;2023-08-30T04:47:36;7.70;;;7.05;;
16246;SDS011;8231;50.866;7.944;2023-08-30T04:50:05;6.70;;;6.20;;
16246;SDS011;8231;50.866;7.944;2023-08-30T04:52:33;6.65;;;6.05;;
16246;SDS011;8231;50.866;7.944;2023-08-30T04:55:04;7.57;;;6.88;;
16246;SDS011;8231;50.866;7.944;2023-08-30T04:57:33;7.57;;;6.88;;
16246;SDS011;8231;50.866;7.944;2023-08-30T05:00:03;5.63;;;5.18;;
16246;SDS011;8231;50.866;7.944;2023-08-30T05:02:33;5.35;;;4.95;;
16246;SDS011;8231;50.866;7.944;2023-08-30T05:05:05;7.57;;;6.82;;
16246;SDS011;8231;50.866;7.944;2023-08-30T05:07:34;7.65;;;7.03;;
16246;SDS011;8231;50.866;7.944;2023-08-30T05:10:05;47.00;;;10.25;;
16246;SDS011;8231;50.866;7.944;2023-08-30T05:12:35;14.93;;;7.35;;
16246;SDS011;8231;50.866;7.944;2023-08-30T05:15:04;14.77;;;7.45;;
16246;SDS011;8231;50.866;7.944;2023-08-30T05:17:34;7.80;;;7.10;;
16246;SDS011;8231;50.866;7.944;2023-08-30T05:20:03;8.50;;;7.72;;
16246;SDS011;8231;50.866;7.944;2023-08-30T05:22:32;8.38;;;7.60;;
16246;SDS011;8231;50.866;7.944;2023-08-30T05:25:02;10.98;;;7.72;;
16246;SDS011;8231;50.866;7.944;2023-08-30T05:27:32;9.05;;;8.15;;
16246;SDS011;8231;50.866;7.944;2023-08-30T05:30:00;8.77;;;7.97;;
16246;SDS011;8231;50.866;7.944;2023-08-30T05:32:30;8.57;;;7.88;;
16246;SDS011;8231;50.866;7.944;2023-08-30T05:35:21;8.60;;;7.80;;
16246;SDS011;8231;50.866;7.944;2023-08-30T05:38:10;8.13;;;7.43;;
16246;SDS011;8231;50.866;7.944;2023-08-30T05:41:14;8.18;;;7.47;;
16246;SDS011;8231;50.866;7.944;2023-08-30T05:43:43;8.27;;;7.55;;
16246;SDS011;8231;50.866;7.944;2023-08-30T05:46:11;11.35;;;9.65;;
16246;SDS011;8231;50.866;7.944;2023-08-30T05:48:41;8.73;;;7.93;;
16246;SDS011;8231;50.866;7.944;2023-08-30T05:51:09;8.77;;;7.97;;
16246;SDS011;8231;50.866;7.944;2023-08-30T05:53:37;8.27;;;7.57;;
16246;SDS011;8231;50.866;7.944;2023-08-30T05:56:06;8.50;;;7.70;;
16246;SDS011;8231;50.866;7.944;2023-08-30T05:58:36;8.48;;;7.63;;
16246;SDS011;8231;50.866;7.944;2023-08-30T06:01:04;8.30;;;7.60;;
16246;SDS011;8231;50.866;7.944;2023-08-30T06:03:34;8.82;;;8.13;;
16246;SDS011;8231;50.866;7.944;2023-08-30T06:06:02;10.00;;;9.00;;
16246;SDS011;8231;50.866;7.944;2023-08-30T06:12:12;8.18;;;7.38;;
16246;SDS011;8231;50.866;7.944;2023-08-30T06:14:41;7.90;;;6.93;;
16246;SDS011;8231;50.866;7.944;2023-08-30T06:17:09;7.80;;;7.15;;
16246;SDS011;8231;50.866;7.944;2023-08-30T06:19:37;7.47;;;6.78;;
16246;SDS011;8231;50.866;7.944;2023-08-30T06:22:06;9.05;;;8.20;;
16246;SDS011;8231;50.866;7.944;2023-08-30T06:24:34;8.10;;;7.40;;
16246;SDS011;8231;50.866;7.944;2023-08-30T06:27:03;7.32;;;6.72;;
16246;SDS011;8231;50.866;7.944;2023-08-30T06:29:31;8.27;;;7.68;;
16246;SDS011;8231;50.866;7.944;2023-08-30T06:32:01;8.35;;;7.75;;
16246;SDS011;8231;50.866;7.944;2023-08-30T06:34:30;8.80;;;7.90;;
16246;SDS011;8231;50.866;7.944;2023-08-30T06:36:58;7.57;;;6.72;;
16246;SDS011;8231;50.866;7.944;2023-08-30T06:39:31;8.52;;;7.82;;
16246;SDS011;8231;50.866;7.944;2023-08-30T06:42:01;9.18;;;8.38;;
16246;SDS011;8231;50.866;7.944;2023-08-30T06:44:29;8.88;;;8.07;;
16246;SDS011;8231;50.866;7.944;2023-08-30T06:46:57;9.25;;;8.35;;
16246;SDS011;8231;50.866;7.944;2023-08-30T06:49:29;10.07;;;8.88;;
16246;SDS011;8231;50.866;7.944;2023-08-30T06:51:58;10.48;;;9.57;;
16246;SDS011;8231;50.866;7.944;2023-08-30T06:54:28;10.38;;;9.45;;
16246;SDS011;8231;50.866;7.944;2023-08-30T06:56:57;10.77;;;9.77;;
16246;SDS011;8231;50.866;7.944;2023-08-30T06:59:26;12.13;;;11.13;;
16246;SDS011;8231;50.866;7.944;2023-08-30T07:01:54;16.77;;;14.38;;
16246;SDS011;8231;50.866;7.944;2023-08-30T07:04:23;16.60;;;14.95;;
16246;SDS011;8231;50.866;7.944;2023-08-30T07:06:53;16.60;;;14.93;;
16246;SDS011;8231;50.866;7.944;2023-08-30T07:09:21;17.55;;;15.82;;
16246;SDS011;8231;50.866;7.944;2023-08-30T07:11:55;19.95;;;18.05;;
16246;SDS011;8231;50.866;7.944;2023-08-30T07:14:23;17.50;;;15.90;;
16246;SDS011;8231;50.866;7.944;2023-08-30T07:16:53;18.90;;;16.98;;
16246;SDS011;8231;50.866;7.944;2023-08-30T07:19:21;18.42;;;16.67;;
16246;SDS011;8231;50.866;7.944;2023-08-30T07:21:49;19.75;;;17.77;;
16246;SDS011;8231;50.866;7.944;2023-08-30T07:24:19;20.48;;;18.45;;
16246;SDS011;8231;50.866;7.944;2023-08-30T07:26:49;18.42;;;16.83;;
16246;SDS011;8231;50.866;7.944;2023-08-30T07:29:17;20.35;;;18.38;;
16246;SDS011;8231;50.866;7.944;2023-08-30T07:31:45;20.02;;;18.08;;
16246;SDS011;8231;50.866;7.944;2023-08-30T07:34:13;19.92;;;17.95;;
16246;SDS011;8231;50.866;7.944;2023-08-30T07:36:41;20.70;;;18.77;;
16246;SDS011;8231;50.866;7.944;2023-08-30T07:39:13;18.98;;;17.08;;
16246;SDS011;8231;50.866;7.944;2023-08-30T07:41:43;19.23;;;17.50;;
16246;SDS011;8231;50.866;7.944;2023-08-30T07:44:11;17.52;;;15.93;;
16246;SDS011;8231;50.866;7.944;2023-08-30T07:46:39;18.15;;;16.40;;
16246;SDS011;8231;50.866;7.944;2023-08-30T07:49:07;18.80;;;16.50;;
16246;SDS011;8231;50.866;7.944;2023-08-30T07:51:36;16.40;;;14.80;;
16246;SDS011;8231;50.866;7.944;2023-08-30T07:54:04;18.38;;;16.75;;
16246;SDS011;8231;50.866;7.944;2023-08-30T07:56:32;15.85;;;14.65;;
16246;SDS011;8231;50.866;7.944;2023-08-30T07:59:02;16.10;;;14.55;;
16246;SDS011;8231;50.866;7.944;2023-08-30T08:01:30;15.77;;;14.27;;
16246;SDS011;8231;50.866;7.944;2023-08-30T08:03:58;16.63;;;15.13;;
16246;SDS011;8231;50.866;7.944;2023-08-30T08:06:33;15.45;;;14.15;;
16246;SDS011;8231;50.866;7.944;2023-08-30T08:09:03;17.33;;;15.73;;
16246;SDS011;8231;50.866;7.944;2023-08-30T08:11:34;15.82;;;14.15;;
16246;SDS011;8231;50.866;7.944;2023-08-30T08:14:03;16.25;;;14.93;;
16246;SDS011;8231;50.866;7.944;2023-08-30T08:16:32;15.70;;;14.32;;
16246;SDS011;8231;50.866;7.944;2023-08-30T08:19:00;15.75;;;14.30;;
16246;SDS011;8231;50.866;7.944;2023-08-30T08:21:29;15.88;;;14.48;;
16246;SDS011;8231;50.866;7.944;2023-08-30T08:23:57;16.70;;;15.23;;
16246;SDS011;8231;50.866;7.944;2023-08-30T08:26:25;15.60;;;14.30;;
16246;SDS011;8231;50.866;7.944;2023-08-30T08:28:53;16.25;;;14.85;;
16246;SDS011;8231;50.866;7.944;2023-08-30T08:31:23;16.00;;;14.50;;
16246;SDS011;8231;50.866;7.944;2023-08-30T08:33:52;16.13;;;14.82;;
16246;SDS011;8231;50.866;7.944;2023-08-30T08:36:34;14.40;;;13.30;;
16246;SDS011;8231;50.866;7.944;2023-08-30T08:39:02;14.82;;;13.60;;
16246;SDS011;8231;50.866;7.944;2023-08-30T08:41:33;14.93;;;13.52;;
16246;SDS011;8231;50.866;7.944;2023-08-30T08:44:05;14.98;;;13.68;;
16246;SDS011;8231;50.866;7.944;2023-08-30T08:46:36;15.65;;;14.40;;
16246;SDS011;8231;50.866;7.944;2023-08-30T08:49:08;14.23;;;13.00;;
16246;SDS011;8231;50.866;7.944;2023-08-30T08:51:40;13.60;;;12.40;;
16246;SDS011;8231;50.866;7.944;2023-08-30T08:54:10;13.98;;;12.68;;
16246;SDS011;8231;50.866;7.944;2023-08-30T08:56:39;11.73;;;10.73;;
16246;SDS011;8231;50.866;7.944;2023-08-30T08:59:07;12.50;;;11.45;;
16246;SDS011;8231;50.866;7.944;2023-08-30T09:01:37;10.70;;;9.57;;
16246;SDS011;8231;50.866;7.944;2023-08-30T09:04:07;9.50;;;8.73;;
16246;SDS011;8231;50.866;7.944;2023-08-30T09:06:37;9.82;;;8.93;;
16246;SDS011;8231;50.866;7.944;2023-08-30T09:09:07;8.85;;;8.05;;
16246;SDS011;8231;50.866;7.944;2023-08-30T09:11:36;8.27;;;7.50;;
16246;SDS011;8231;50.866;7.944;2023-08-30T09:14:17;7.43;;;6.72;;
16246;SDS011;8231;50.866;7.944;2023-08-30T09:16:55;6.60;;;5.95;;
16246;SDS011;8231;50.866;7.944;2023-08-30T09:19:23;7.28;;;6.68;;
16246;SDS011;8231;50.866;7.944;2023-08-30T09:21:52;5.68;;;5.28;;
16246;SDS011;8231;50.866;7.944;2023-08-30T09:24:21;5.43;;;4.93;;
16246;SDS011;8231;50.866;7.944;2023-08-30T09:26:50;5.53;;;4.40;;
16246;SDS011;8231;50.866;7.944;2023-08-30T09:29:19;4.50;;;4.10;;
16246;SDS011;8231;50.866;7.944;2023-08-30T09:31:50;4.60;;;4.20;;
16246;SDS011;8231;50.866;7.944;2023-08-30T09:34:23;5.20;;;3.97;;
16246;SDS011;8231;50.866;7.944;2023-08-30T09:36:51;4.53;;;4.10;;
16246;SDS011;8231;50.866;7.944;2023-08-30T09:39:20;4.35;;;3.60;;
16246;SDS011;8231;50.866;7.944;2023-08-30T09:41:49;3.50;;;3.30;;
16246;SDS011;8231;50.866;7.944;2023-08-30T09:44:18;4.07;;;3.67;;
16246;SDS011;8231;50.866;7.944;2023-08-30T09:46:49;3.10;;;2.80;;
16246;SDS011;8231;50.866;7.944;2023-08-30T09:49:19;4.60;;;2.72;;
16246;SDS011;8231;50.866;7.944;2023-08-30T09:51:51;2.90;;;2.60;;
16246;SDS011;8231;50.866;7.944;2023-08-30T09:54:21;2.80;;;2.60;;
16246;SDS011;8231;50.866;7.944;2023-08-30T09:56:53;2.40;;;2.20;;
16246;SDS011;8231;50.866;7.944;2023-08-30T09:59:24;2.40;;;2.20;;
16246;SDS011;8231;50.866;7.944;2023-08-30T10:01:53;3.97;;;2.70;;
16246;SDS011;8231;50.866;7.944;2023-08-30T10:04:23;3.95;;;2.63;;
16246;SDS011;8231;50.866;7.944;2023-08-30T10:06:54;3.60;;;2.85;;
16246;SDS011;8231;50.866;7.944;2023-08-30T10:09:24;4.50;;;3.53;;
16246;SDS011;8231;50.866;7.944;2023-08-30T10:11:53;3.08;;;2.80;;
16246;SDS011;8231;50.866;7.944;2023-08-30T10:14:22;4.35;;;3.50;;
16246;SDS011;8231;50.866;7.944;2023-08-30T10:16:51;2.95;;;2.55;;
16246;SDS011;8231;50.866;7.944;2023-08-30T10:19:28;3.10;;;2.70;;
16246;SDS011;8231;50.866;7.944;2023-08-30T10:22:00;3.55;;;3.25;;
16246;SDS011;8231;50.866;7.944;2023-08-30T10:24:31;3.25;;;2.95;;
16246;SDS011;8231;50.866;7.944;2023-08-30T10:27:23;3.13;;;2.83;;
16246;SDS011;8231;50.866;7.944;2023-08-30T10:29:52;3.00;;;2.70;;
16246;SDS011;8231;50.866;7.944;2023-08-30T10:32:21;3.15;;;2.90;;
16246;SDS011;8231;50.866;7.944;2023-08-30T10:34:50;4.30;;;2.70;;
16246;SDS011;8231;50.866;7.944;2023-08-30T10:37:23;3.65;;;2.55;;
16246;SDS011;8231;50.866;7.944;2023-08-30T10:39:58;3.47;;;3.17;;
16246;SDS011;8231;50.866;7.944;2023-08-30T10:42:29;4.85;;;3.35;;
16246;SDS011;8231;50.866;7.944;2023-08-30T10:44:58;3.67;;;2.50;;
16246;SDS011;8231;50.866;7.944;2023-08-30T10:47:30;3.80;;;3.50;;
16246;SDS011;8231;50.866;7.944;2023-08-30T10:50:04;3.72;;;3.30;;
16246;SDS011;8231;50.866;7.944;2023-08-30T10:52:34;3.75;;;3.38;;
16246;SDS011;8231;50.866;7.944;2023-08-30T10:55:06;3.33;;;3.03;;
16246;SDS011;8231;50.866;7.944;2023-08-30T10:57:36;2.83;;;2.58;;
16246;SDS011;8231;50.866;7.944;2023-08-30T11:00:05;4.85;;;3.03;;
16246;SDS011;8231;50.866;7.944;2023-08-30T11:02:36;3.90;;;3.50;;
16246;SDS011;8231;50.866;7.944;2023-08-30T11:05:05;4.95;;;3.20;;
16246;SDS011;8231;50.866;7.944;2023-08-30T11:07:35;4.43;;;3.38;;
16246;SDS011;8231;50.866;7.944;2023-08-30T11:10:04;3.60;;;3.30;;
16246;SDS011;8231;50.866;7.944;2023-08-30T11:12:33;3.20;;;2.90;;
16246;SDS011;8231;50.866;7.944;2023-08-30T11:15:02;3.30;;;3.00;;
16246;SDS011;8231;50.866;7.944;2023-08-30T11:17:31;3.47;;;2.95;;
16246;SDS011;8231;50.866;7.944;2023-08-30T11:20:05;3.17;;;2.65;;
16246;SDS011;8231;50.866;7.944;2023-08-30T11:22:36;3.25;;;2.95;;
16246;SDS011;8231;50.866;7.944;2023-08-30T11:25:05;3.78;;;3.20;;
16246;SDS011;8231;50.866;7.944;2023-08-30T11:27:35;3.35;;;3.05;;
16246;SDS011;8231;50.866;7.944;2023-08-30T11:30:03;5.88;;;4.15;;
16246;SDS011;8231;50.866;7.944;2023-08-30T11:32:33;3.90;;;3.60;;
16246;SDS011;8231;50.866;7.944;2023-08-30T11:35:02;4.78;;;3.60;;
16246;SDS011;8231;50.866;7.944;2023-08-30T11:37:31;4.20;;;3.80;;
16246;SDS011;8231;50.866;7.944;2023-08-30T11:40:01;5.57;;;4.07;;
16246;SDS011;8231;50.866;7.944;2023-08-30T11:42:30;4.50;;;3.30;;
16246;SDS011;8231;50.866;7.944;2023-08-30T11:44:58;3.45;;;3.22;;
16246;SDS011;8231;50.866;7.944;2023-08-30T11:47:27;7.28;;;3.92;;
16246;SDS011;8231;50.866;7.944;2023-08-30T11:49:56;3.50;;;3.20;;
16246;SDS011;8231;50.866;7.944;2023-08-30T11:52:24;4.88;;;3.22;;
16246;SDS011;8231;50.866;7.944;2023-08-30T11:54:54;3.88;;;3.10;;
16246;SDS011;8231;50.866;7.944;2023-08-30T11:57:24;3.90;;;3.50;;
16246;SDS011;8231;50.866;7.944;2023-08-30T11:59:54;4.10;;;3.80;;
16246;SDS011;8231;50.866;7.944;2023-08-30T12:02:22;5.35;;;3.67;;
16246;SDS011;8231;50.866;7.944;2023-08-30T12:04:50;4.65;;;3.38;;
16246;SDS011;8231;50.866;7.944;2023-08-30T12:07:23;3.65;;;2.75;;
16246;SDS011;8231;50.866;7.944;2023-08-30T12:09:52;4.35;;;3.05;;
16246;SDS011;8231;50.866;7.944;2023-08-30T12:12:32;4.20;;;3.70;;
16246;SDS011;8231;50.866;7.944;2023-08-30T12:15:07;3.40;;;3.10;;
16246;SDS011;8231;50.866;7.944;2023-08-30T12:17:36;3.25;;;2.97;;
16246;SDS011;8231;50.866;7.944;2023-08-30T12:20:04;3.58;;;3.28;;
16246;SDS011;8231;50.866;7.944;2023-08-30T12:22:37;5.47;;;3.80;;
16246;SDS011;8231;50.866;7.944;2023-08-30T12:25:15;3.63;;;3.30;;
16246;SDS011;8231;50.866;7.944;2023-08-30T12:27:45;3.75;;;3.45;;
16246;SDS011;8231;50.866;7.944;2023-08-30T12:30:14;4.05;;;3.53;;
16246;SDS011;8231;50.866;7.944;2023-08-30T12:32:43;4.50;;;2.88;;
16246;SDS011;8231;50.866;7.944;2023-08-30T12:35:12;4.70;;;3.70;;
16246;SDS011;8231;50.866;7.944;2023-08-30T12:37:41;4.50;;;3.35;;
16246;SDS011;8231;50.866;7.944;2023-08-30T12:40:09;5.57;;;3.42;;
16246;SDS011;8231;50.866;7.944;2023-08-30T12:42:38;3.45;;;3.15;;
16246;SDS011;8231;50.866;7.944;2023-08-30T12:45:08;2.75;;;2.55;;
16246;SDS011;8231;50.866;7.944;2023-08-30T12:47:37;3.75;;;3.45;;
16246;SDS011;8231;50.866;7.944;2023-08-30T12:50:05;5.03;;;3.25;;
16246;SDS011;8231;50.866;7.944;2023-08-30T12:52:34;4.72;;;3.30;;
16246;SDS011;8231;50.866;7.944;2023-08-30T12:55:03;3.70;;;3.00;;
16246;SDS011;8231;50.866;7.944;2023-08-30T12:57:31;3.88;;;3.47;;
16246;SDS011;8231;50.866;7.944;2023-08-30T12:59:59;5.00;;;3.55;;
16246;SDS011;8231;50.866;7.944;2023-08-30T13:02:29;3.45;;;3.25;;
16246;SDS011;8231;50.866;7.944;2023-08-30T13:04:57;3.97;;;3.38;;
16246;SDS011;8231;50.866;7.944;2023-08-30T13:07:26;4.85;;;3.42;;
16246;SDS011;8231;50.866;7.944;2023-08-30T13:09:54;3.60;;;3.15;;
16246;SDS011;8231;50.866;7.944;2023-08-30T13:12:22;10.57;;;3.70;;
16246;SDS011;8231;50.866;7.944;2023-08-30T13:14:51;3.63;;;3.33;;
16246;SDS011;8231;50.866;7.944;2023-08-30T13:17:20;4.35;;;3.47;;
16246;SDS011;8231;50.866;7.944;2023-08-30T13:19:49;5.05;;;2.80;;
16246;SDS011;8231;50.866;7.944;2023-08-30T13:22:17;3.50;;;3.20;;
16246;SDS011;8231;50.866;7.944;2023-08-30T13:24:46;4.30;;;3.17;;
16246;SDS011;8231;50.866;7.944;2023-08-30T13:27:14;4.70;;;3.50;;
16246;SDS011;8231;50.866;7.944;2023-08-30T13:29:42;4.28;;;3.13;;
16246;SDS011;8231;50.866;7.944;2023-08-30T13:32:11;5.15;;;3.53;;
16246;SDS011;8231;50.866;7.944;2023-08-30T13:34:39;3.38;;;3.08;;
16246;SDS011;8231;50.866;7.944;2023-08-30T13:37:11;4.13;;;3.20;;
16246;SDS011;8231;50.866;7.944;2023-08-30T13:39:40;4.70;;;3.10;;
16246;SDS011;8231;50.866;7.944;2023-08-30T13:42:08;4.30;;;3.90;;
16246;SDS011;8231;50.866;7.944;2023-08-30T13:44:36;6.88;;;3.60;;
16246;SDS011;8231;50.866;7.944;2023-08-30T13:47:04;3.47;;;3.17;;
16246;SDS011;8231;50.866;7.944;2023-08-30T13:49:33;5.53;;;4.28;;
16246;SDS011;8231;50.866;7.944;2023-08-30T13:52:03;4.60;;;4.10;;
16246;SDS011;8231;50.866;7.944;2023-08-30T13:54:33;4.30;;;3.83;;
16246;SDS011;8231;50.866;7.944;2023-08-30T13:57:01;4.68;;;4.28;;
16246;SDS011;8231;50.866;7.944;2023-08-30T13:59:29;4.75;;;4.35;;
16246;SDS011;8231;50.866;7.944;2023-08-30T14:01:58;5.30;;;4.68;;
16246;SDS011;8231;50.866;7.944;2023-08-30T14:04:26;8.07;;;6.18;;
16246;SDS011;8231;50.866;7.944;2023-08-30T14:06:56;6.38;;;4.55;;
16246;SDS011;8231;50.866;7.944;2023-08-30T14:09:24;5.00;;;4.57;;
16246;SDS011;8231;50.866;7.944;2023-08-30T14:11:54;5.05;;;4.55;;
16246;SDS011;8231;50.866;7.944;2023-08-30T14:14:22;4.55;;;4.00;;
16246;SDS011;8231;50.866;7.944;2023-08-30T14:16:50;4.75;;;4.22;;
16246;SDS011;8231;50.866;7.944;2023-08-30T14:19:19;4.97;;;4.57;;
16246;SDS011;8231;50.866;7.944;2023-08-30T14:21:48;4.55;;;4.15;;
16246;SDS011;8231;50.866;7.944;2023-08-30T14:24:16;4.07;;;3.78;;
16246;SDS011;8231;50.866;7.944;2023-08-30T14:26:44;4.20;;;3.25;;
16246;SDS011;8231;50.866;7.944;2023-08-30T14:29:35;3.58;;;3.28;;
16246;SDS011;8231;50.866;7.944;2023-08-30T14:32:03;3.30;;;3.00;;
16246;SDS011;8231;50.866;7.944;2023-08-30T14:34:32;3.33;;;3.03;;
16246;SDS011;8231;50.866;7.944;2023-08-30T14:37:00;4.28;;;2.60;;
16246;SDS011;8231;50.866;7.944;2023-08-30T14:39:28;2.45;;;2.17;;
16246;SDS011;8231;50.866;7.944;2023-08-30T14:41:56;2.65;;;2.45;;
16246;SDS011;8231;50.866;7.944;2023-08-30T14:44:24;2.78;;;2.58;;
16246;SDS011;8231;50.866;7.944;2023-08-30T14:46:55;2.10;;;2.00;;
16246;SDS011;8231;50.866;7.944;2023-08-30T14:49:23;4.00;;;2.50;;
16246;SDS011;8231;50.866;7.944;2023-08-30T14:51:52;2.60;;;2.40;;
16246;SDS011;8231;50.866;7.944;2023-08-30T14:54:21;2.90;;;2.70;;
16246;SDS011;8231;50.866;7.944;2023-08-30T14:56:50;3.67;;;2.50;;
16246;SDS011;8231;50.866;7.944;2023-08-30T14:59:18;2.47;;;2.28;;
16246;SDS011;8231;50.866;7.944;2023-08-30T15:01:46;2.25;;;1.88;;
16246;SDS011;8231;50.866;7.944;2023-08-30T15:04:16;1.80;;;1.55;;
16246;SDS011;8231;50.866;7.944;2023-08-30T15:06:44;2.33;;;1.60;;
16246;SDS011;8231;50.866;7.944;2023-08-30T15:09:12;1.52;;;1.42;;
16246;SDS011;8231;50.866;7.944;2023-08-30T15:11:42;1.80;;;1.70;;
16246;SDS011;8231;50.866;7.944;2023-08-30T15:14:11;1.92;;;1.83;;